Time,TemperatureF,DewpointF,PressureIn,WindDirection,WindDirectionDegrees,WindSpeedMPH,WindSpeedGustMPH,Humidity,HourlyPrecipIn,Conditions,Clouds,dailyrainin,SoftwareType,DateUTC
2013-06-11 00:14:00,60.3,60.0,29.83,South,177,0.0,0.0,99,0.00,,,0.00,weatherlink.com 1.10,2013-06-11 05:14:00,
2013-06-11 00:29:00,60.1,60.0,29.83,ENE,65,0.0,1.0,100,0.00,,,0.00,weatherlink.com 1.10,2013-06-11 05:29:00,
2013-06-11 00:44:00,59.8,60.0,29.83,ENE,63,0.0,1.0,99,0.00,,,0.00,weatherlink.com 1.10,2013-06-11 05:44:00,
2013-06-11 00:59:00,60.1,60.0,29.83,East,79,0.0,1.0,100,0.00,,,0.00,weatherlink.com 1.10,2013-06-11 05:59:00,
2013-06-11 01:14:00,59.8,60.0,29.84,East,79,0.0,0.0,100,0.00,,,0.00,weatherlink.com 1.10,2013-06-11 06:14:00,
2013-06-11 01:29:00,59.4,59.0,29.85,East,79,0.0,0.0,100,0.00,,,0.00,weatherlink.com 1.10,2013-06-11 06:29:00,
2013-06-11 01:44:00,59.3,59.0,29.86,East,79,0.0,0.0,100,0.00,,,0.00,weatherlink.com 1.10,2013-06-11 06:44:00,
2013-06-11 01:59:00,59.2,59.0,29.85,East,79,1.0,1.0,100,0.00,,,0.00,weatherlink.com 1.10,2013-06-11 06:59:00,
2013-06-11 02:14:00,59.1,59.0,29.85,East,85,0.0,0.0,100,0.00,,,0.00,weatherlink.com 1.10,2013-06-11 07:14:00,
2013-06-11 02:29:00,58.5,59.0,29.86,East,85,0.0,0.0,100,0.00,,,0.00,weatherlink.com 1.10,2013-06-11 07:29:00,
2013-06-11 02:44:00,58.4,58.0,29.85,East,85,0.0,1.0,100,0.00,,,0.00,weatherlink.com 1.10,2013-06-11 07:44:00,
2013-06-11 02:59:00,58.2,58.0,29.86,East,85,0.0,1.0,100,0.00,,,0.00,weatherlink.com 1.10,2013-06-11 07:59:00,
2013-06-11 03:14:00,58.1,58.0,29.85,East,96,0.0,1.0,100,0.00,,,0.00,weatherlink.com 1.10,2013-06-11 08:14:00,
2013-06-11 03:30:00,57.8,58.0,29.85,East,96,0.0,0.0,100,0.00,,,0.00,weatherlink.com 1.10,2013-06-11 08:30:00,
2013-06-11 03:45:00,58.2,58.0,29.84,ESE,117,0.0,1.0,100,0.00,,,0.00,weatherlink.com 1.10,2013-06-11 08:45:00,
2013-06-11 04:00:00,57.7,58.0,29.84,ESE,117,0.0,0.0,100,0.00,,,0.00,weatherlink.com 1.10,2013-06-11 09:00:00,
2013-06-11 04:15:00,57.2,57.0,29.84,ESE,117,0.0,0.0,100,0.00,,,0.00,weatherlink.com 1.10,2013-06-11 09:15:00,
2013-06-11 04:30:00,57.3,57.0,29.84,ESE,117,0.0,0.0,100,0.00,,,0.00,weatherlink.com 1.10,2013-06-11 09:30:00,
2013-06-11 04:45:00,57.4,57.0,29.84,ESE,115,0.0,1.0,100,0.00,,,0.00,weatherlink.com 1.10,2013-06-11 09:45:00,
2013-06-11 05:00:00,57.4,57.0,29.84,East,101,0.0,0.0,100,0.00,,,0.00,weatherlink.com 1.10,2013-06-11 10:00:00,
2013-06-11 05:15:00,57.3,57.0,29.84,East,88,0.0,1.0,100,0.00,,,0.00,weatherlink.com 1.10,2013-06-11 10:15:00,
2013-06-11 05:30:00,57.1,57.0,29.84,East,87,0.0,0.0,100,0.00,,,0.00,weatherlink.com 1.10,2013-06-11 10:30:00,
2013-06-11 05:45:00,57.3,57.0,29.84,East,86,0.0,1.0,100,0.00,,,0.00,weatherlink.com 1.10,2013-06-11 10:45:00,
2013-06-11 06:00:00,58.0,58.0,29.85,East,86,0.0,1.0,100,0.00,,,0.00,weatherlink.com 1.10,2013-06-11 11:00:00,
2013-06-11 06:15:00,58.8,59.0,29.85,ENE,68,2.0,2.0,100,0.00,,,0.00,weatherlink.com 1.10,2013-06-11 11:15:00,
2013-06-11 06:30:00,60.5,61.0,29.86,ENE,70,0.0,1.0,100,0.00,,,0.00,weatherlink.com 1.10,2013-06-11 11:30:00,
2013-06-11 06:45:00,62.2,62.0,29.86,East,94,0.0,1.0,99,0.00,,,0.00,weatherlink.com 1.10,2013-06-11 11:45:00,
2013-06-11 07:00:00,63.8,62.0,29.85,ENE,72,1.0,2.0,95,0.00,,,0.00,weatherlink.com 1.10,2013-06-11 12:00:00,
2013-06-11 07:15:00,65.2,64.0,29.84,ENE,67,1.0,2.0,95,0.00,,,0.00,weatherlink.com 1.10,2013-06-11 12:15:00,
2013-06-11 07:30:00,66.8,65.0,29.84,ENE,72,0.0,2.0,92,0.00,,,0.00,weatherlink.com 1.10,2013-06-11 12:30:00,
2013-06-11 07:45:00,67.7,65.0,29.84,NE,55,1.0,3.0,92,0.00,,,0.00,weatherlink.com 1.10,2013-06-11 12:45:00,
2013-06-11 08:00:00,69.7,67.0,29.84,ENE,77,0.0,3.0,90,0.00,,,0.00,weatherlink.com 1.10,2013-06-11 13:00:00,
2013-06-11 08:15:00,72.0,67.0,29.84,East,94,1.0,2.0,85,0.00,,,0.00,weatherlink.com 1.10,2013-06-11 13:15:00,
2013-06-11 08:30:00,74.1,68.0,29.85,SSE,162,0.0,2.0,80,0.00,,,0.00,weatherlink.com 1.10,2013-06-11 13:30:00,
2013-06-11 08:45:00,73.8,68.0,29.86,West,262,3.0,4.0,83,0.00,,,0.00,weatherlink.com 1.10,2013-06-11 13:45:00,
2013-06-11 09:00:00,73.0,67.0,29.86,WSW,246,2.0,6.0,82,0.00,,,0.00,weatherlink.com 1.10,2013-06-11 14:00:00,
2013-06-11 09:15:00,74.0,68.0,29.86,West,260,1.0,4.0,82,0.00,,,0.00,weatherlink.com 1.10,2013-06-11 14:15:00,
2013-06-11 09:30:00,74.4,69.0,29.87,South,172,4.0,5.0,82,0.00,,,0.00,weatherlink.com 1.10,2013-06-11 14:30:00,
2013-06-11 09:45:00,75.1,68.0,29.87,SW,222,1.0,4.0,79,0.00,,,0.00,weatherlink.com 1.10,2013-06-11 14:45:00,
2013-06-11 10:00:00,75.8,68.0,29.85,SSE,163,2.0,5.0,77,0.00,,,0.00,weatherlink.com 1.10,2013-06-11 15:00:00,
2013-06-11 10:15:00,75.8,68.0,29.85,SW,229,4.0,4.0,77,0.00,,,0.00,weatherlink.com 1.10,2013-06-11 15:15:00,
2013-06-11 10:30:00,76.8,68.0,29.85,East,95,0.0,3.0,74,0.00,,,0.00,weatherlink.com 1.10,2013-06-11 15:30:00,
2013-06-11 10:45:00,77.9,68.0,29.83,SW,233,2.0,4.0,71,0.00,,,0.00,weatherlink.com 1.10,2013-06-11 15:45:00,
2013-06-11 11:00:00,79.0,69.0,29.84,SSE,162,1.0,5.0,71,0.00,,,0.00,weatherlink.com 1.10,2013-06-11 16:00:00,
2013-06-11 11:16:00,79.8,68.0,29.83,NNE,12,1.0,5.0,68,0.00,,,0.00,weatherlink.com 1.10,2013-06-11 16:16:00,
2013-06-11 11:31:00,78.6,68.0,29.84,SW,226,0.0,2.0,70,0.00,,,0.00,weatherlink.com 1.10,2013-06-11 16:31:00,
2013-06-11 11:46:00,79.0,68.0,29.85,SSE,153,0.0,5.0,69,0.00,,,0.00,weatherlink.com 1.10,2013-06-11 16:46:00,
2013-06-11 12:01:00,79.7,69.0,29.85,West,264,1.0,2.0,69,0.00,,,0.00,weatherlink.com 1.10,2013-06-11 17:01:00,
2013-06-11 12:16:00,78.9,69.0,29.85,WSW,238,2.0,4.0,71,0.00,,,0.00,weatherlink.com 1.10,2013-06-11 17:16:00,
2013-06-11 12:31:00,80.1,70.0,29.84,South,186,2.0,2.0,70,0.00,,,0.00,weatherlink.com 1.10,2013-06-11 17:31:00,
2013-06-11 12:46:00,81.5,70.0,29.84,NE,54,1.0,1.0,69,0.00,,,0.00,weatherlink.com 1.10,2013-06-11 17:46:00,
2013-06-11 13:01:00,80.4,68.0,29.83,SSE,158,0.0,3.0,66,0.00,,,0.00,weatherlink.com 1.10,2013-06-11 18:01:00,
2013-06-11 13:16:00,80.0,69.0,29.81,ESE,119,3.0,4.0,68,0.00,,,0.00,weatherlink.com 1.10,2013-06-11 18:16:00,
2013-06-11 13:31:00,79.9,68.0,29.81,East,101,2.0,6.0,66,0.00,,,0.00,weatherlink.com 1.10,2013-06-11 18:31:00,
2013-06-11 13:46:00,81.8,69.0,29.82,SSW,199,1.0,6.0,66,0.00,,,0.00,weatherlink.com 1.10,2013-06-11 18:46:00,
2013-06-11 14:01:00,82.3,70.0,29.82,SSW,210,3.0,6.0,67,0.00,,,0.00,weatherlink.com 1.10,2013-06-11 19:01:00,
2013-06-11 14:16:00,81.9,69.0,29.82,ESE,121,2.0,6.0,66,0.00,,,0.00,weatherlink.com 1.10,2013-06-11 19:16:00,
2013-06-11 14:31:00,80.5,70.0,29.82,SE,146,1.0,7.0,70,0.00,,,0.00,weatherlink.com 1.10,2013-06-11 19:31:00,
2013-06-11 14:46:00,81.3,70.0,29.82,SSE,165,0.0,5.0,69,0.00,,,0.00,weatherlink.com 1.10,2013-06-11 19:46:00,
2013-06-11 15:01:00,82.7,71.0,29.80,SE,141,1.0,7.0,67,0.00,,,0.00,weatherlink.com 1.10,2013-06-11 20:01:00,
2013-06-11 15:16:00,82.7,69.0,29.79,ESE,116,1.0,6.0,63,0.00,,,0.00,weatherlink.com 1.10,2013-06-11 20:16:00,
2013-06-11 15:46:00,83.7,69.0,29.78,SE,144,2.0,7.0,62,0.00,,,0.00,weatherlink.com 1.10,2013-06-11 20:46:00,
2013-06-11 16:16:00,84.3,68.0,29.77,SSW,205,3.0,7.0,58,0.00,,,0.00,weatherlink.com 1.10,2013-06-11 21:16:00,
2013-06-11 16:31:00,85.4,69.0,29.77,SW,221,2.0,4.0,59,0.00,,,0.00,weatherlink.com 1.10,2013-06-11 21:31:00,
2013-06-11 16:46:00,84.9,69.0,29.77,WSW,238,6.0,6.0,60,0.00,,,0.00,weatherlink.com 1.10,2013-06-11 21:46:00,
2013-06-11 17:01:00,84.4,68.0,29.77,West,264,4.0,10.0,59,0.00,,,0.00,weatherlink.com 1.10,2013-06-11 22:01:00,
2013-06-11 17:16:00,83.8,68.0,29.75,SSW,211,4.0,11.0,60,0.00,,,0.00,weatherlink.com 1.10,2013-06-11 22:16:00,
2013-06-11 17:31:00,82.9,68.0,29.77,East,101,1.0,9.0,62,0.00,,,0.00,weatherlink.com 1.10,2013-06-11 22:31:00,
2013-06-11 17:46:00,84.7,70.0,29.77,SSW,200,2.0,4.0,61,0.00,,,0.00,weatherlink.com 1.10,2013-06-11 22:46:00,
2013-06-11 18:01:00,85.1,69.0,29.76,SSW,203,1.0,4.0,59,0.00,,,0.00,weatherlink.com 1.10,2013-06-11 23:01:00,
2013-06-11 18:16:00,84.0,71.0,29.77,SSE,154,0.0,1.0,65,0.00,,,0.00,weatherlink.com 1.10,2013-06-11 23:16:00,
2013-06-11 18:31:00,83.5,71.0,29.76,SSE,154,0.0,1.0,66,0.00,,,0.00,weatherlink.com 1.10,2013-06-11 23:31:00,
2013-06-11 18:46:00,82.8,71.0,29.77,NNW,338,0.0,1.0,67,0.00,,,0.00,weatherlink.com 1.10,2013-06-11 23:46:00,
2013-06-11 19:01:00,81.4,72.0,29.76,NE,51,0.0,1.0,73,0.00,,,0.00,weatherlink.com 1.10,2013-06-12 00:01:00,
2013-06-11 19:16:00,82.5,72.0,29.79,North,8,1.0,2.0,70,0.00,,,0.00,weatherlink.com 1.10,2013-06-12 00:16:00,
2013-06-11 19:31:00,83.8,72.0,29.78,NW,322,0.0,3.0,67,0.00,,,0.00,weatherlink.com 1.10,2013-06-12 00:31:00,
2013-06-11 19:46:00,82.3,72.0,29.77,SE,131,0.0,2.0,71,0.00,,,0.00,weatherlink.com 1.10,2013-06-12 00:46:00,
2013-06-11 20:01:00,79.6,73.0,29.75,SE,131,0.0,1.0,79,0.00,,,0.00,weatherlink.com 1.10,2013-06-12 01:01:00,
2013-06-11 20:16:00,78.6,72.0,29.74,ESE,110,1.0,2.0,80,0.00,,,0.00,weatherlink.com 1.10,2013-06-12 01:16:00,
2013-06-11 20:31:00,77.5,72.0,29.75,ENE,68,0.0,1.0,83,0.00,,,0.00,weatherlink.com 1.10,2013-06-12 01:31:00,
2013-06-11 20:46:00,76.8,71.0,29.75,ESE,115,2.0,3.0,82,0.00,,,0.00,weatherlink.com 1.10,2013-06-12 01:46:00,
2013-06-11 21:01:00,75.6,71.0,29.75,ESE,123,3.0,3.0,85,0.00,,,0.00,weatherlink.com 1.10,2013-06-12 02:01:00,
2013-06-11 21:16:00,75.2,71.0,29.75,NE,51,0.0,1.0,86,0.00,,,0.00,weatherlink.com 1.10,2013-06-12 02:16:00,
2013-06-11 21:31:00,74.7,70.0,29.75,SSE,159,0.0,4.0,85,0.00,,,0.00,weatherlink.com 1.10,2013-06-12 02:31:00,
2013-06-11 21:46:00,74.6,70.0,29.75,WSW,240,1.0,1.0,84,0.00,,,0.00,weatherlink.com 1.10,2013-06-12 02:46:00,
2013-06-11 22:01:00,73.5,69.0,29.75,East,98,0.0,1.0,86,0.00,,,0.00,weatherlink.com 1.10,2013-06-12 03:01:00,
2013-06-11 22:17:00,72.3,69.0,29.76,NE,51,0.0,4.0,88,0.00,,,0.00,weatherlink.com 1.10,2013-06-12 03:17:00,
2013-06-11 22:31:00,72.0,69.0,29.76,SW,224,1.0,1.0,89,0.00,,,0.00,weatherlink.com 1.10,2013-06-12 03:31:00,
2013-06-11 22:47:00,71.4,68.0,29.76,SW,228,1.0,2.0,90,0.00,,,0.00,weatherlink.com 1.10,2013-06-12 03:47:00,
2013-06-11 23:01:00,69.9,68.0,29.76,East,80,1.0,1.0,92,0.00,,,0.00,weatherlink.com 1.10,2013-06-12 04:01:00,
2013-06-11 23:16:00,70.1,68.0,29.76,SW,228,0.0,3.0,93,0.00,,,0.00,weatherlink.com 1.10,2013-06-12 04:16:00,
2013-06-11 23:31:00,69.2,67.0,29.80,NNE,16,3.0,3.0,93,0.00,,,0.00,weatherlink.com 1.10,2013-06-12 04:31:00,
2013-06-11 23:46:00,71.5,68.0,29.81,ENE,77,0.0,4.0,87,0.00,,,0.00,weatherlink.com 1.10,2013-06-12 04:46:00,